sensor_id;sensor_type;location;lat;lon;timestamp;P1;durP1;ratioP1;P2;durP2;ratioP2
20365;SDS011;10341;49.894;8.822;2023-09-08T00:01:47;6.38;;;4.13;;
20365;SDS011;10341;49.894;8.822;2023-09-08T00:12:26;5.15;;;3.65;;
20365;SDS011;10341;49.894;8.822;2023-09-08T00:17:46;5.35;;;3.90;;
20365;SDS011;10341;49.894;8.822;2023-09-08T00:23:06;6.55;;;3.95;;
20365;SDS011;10341;49.894;8.822;2023-09-08T00:28:26;6.25;;;4.68;;
20365;SDS011;10341;49.894;8.822;2023-09-08T00:33:45;6.20;;;4.43;;
20365;SDS011;10341;49.894;8.822;2023-09-08T00:39:04;5.00;;;3.60;;
20365;SDS011;10341;49.894;8.822;2023-09-08T00:44:24;6.23;;;4.37;;
20365;SDS011;10341;49.894;8.822;2023-09-08T00:49:44;5.30;;;4.00;;
20365;SDS011;10341;49.894;8.822;2023-09-08T00:55:04;4.50;;;3.75;;
20365;SDS011;10341;49.894;8.822;2023-09-08T01:00:25;6.05;;;4.00;;
20365;SDS011;10341;49.894;8.822;2023-09-08T01:11:06;6.50;;;4.65;;
20365;SDS011;10341;49.894;8.822;2023-09-08T01:16:26;8.77;;;4.70;;
20365;SDS011;10341;49.894;8.822;2023-09-08T01:27:19;7.10;;;4.30;;
20365;SDS011;10341;49.894;8.822;2023-09-08T01:32:41;4.90;;;3.83;;
20365;SDS011;10341;49.894;8.822;2023-09-08T01:38:04;4.90;;;3.75;;
20365;SDS011;10341;49.894;8.822;2023-09-08T01:48:43;4.90;;;3.53;;
20365;SDS011;10341;49.894;8.822;2023-09-08T01:54:03;5.57;;;4.22;;
20365;SDS011;10341;49.894;8.822;2023-09-08T01:59:24;7.70;;;4.88;;
20365;SDS011;10341;49.894;8.822;2023-09-08T02:04:44;7.38;;;4.80;;
20365;SDS011;10341;49.894;8.822;2023-09-08T02:10:04;9.32;;;5.28;;
20365;SDS011;10341;49.894;8.822;2023-09-08T02:20:43;5.53;;;4.30;;
20365;SDS011;10341;49.894;8.822;2023-09-08T02:26:03;4.43;;;3.38;;
20365;SDS011;10341;49.894;8.822;2023-09-08T02:31:23;4.90;;;3.40;;
20365;SDS011;10341;49.894;8.822;2023-09-08T02:42:03;7.35;;;4.45;;
20365;SDS011;10341;49.894;8.822;2023-09-08T02:47:22;7.97;;;5.10;;
20365;SDS011;10341;49.894;8.822;2023-09-08T02:52:43;7.07;;;4.50;;
20365;SDS011;10341;49.894;8.822;2023-09-08T02:58:03;5.20;;;4.13;;
20365;SDS011;10341;49.894;8.822;2023-09-08T03:03:23;6.72;;;4.45;;
20365;SDS011;10341;49.894;8.822;2023-09-08T03:08:42;9.15;;;5.10;;
20365;SDS011;10341;49.894;8.822;2023-09-08T03:14:02;7.80;;;4.80;;
20365;SDS011;10341;49.894;8.822;2023-09-08T03:19:23;6.75;;;4.72;;
20365;SDS011;10341;49.894;8.822;2023-09-08T03:24:42;6.90;;;4.55;;
20365;SDS011;10341;49.894;8.822;2023-09-08T03:30:02;7.82;;;5.43;;
20365;SDS011;10341;49.894;8.822;2023-09-08T03:35:23;8.10;;;5.15;;
20365;SDS011;10341;49.894;8.822;2023-09-08T03:40:42;11.10;;;5.87;;
20365;SDS011;10341;49.894;8.822;2023-09-08T03:46:02;8.18;;;5.00;;
20365;SDS011;10341;49.894;8.822;2023-09-08T03:51:22;7.63;;;5.45;;
20365;SDS011;10341;49.894;8.822;2023-09-08T03:56:41;8.55;;;5.30;;
20365;SDS011;10341;49.894;8.822;2023-09-08T04:02:01;7.15;;;4.97;;
20365;SDS011;10341;49.894;8.822;2023-09-08T04:12:40;9.73;;;5.70;;
20365;SDS011;10341;49.894;8.822;2023-09-08T04:18:00;8.10;;;5.40;;
20365;SDS011;10341;49.894;8.822;2023-09-08T04:23:21;11.15;;;6.13;;
20365;SDS011;10341;49.894;8.822;2023-09-08T04:28:41;9.70;;;4.85;;
20365;SDS011;10341;49.894;8.822;2023-09-08T04:34:01;8.43;;;4.53;;
20365;SDS011;10341;49.894;8.822;2023-09-08T04:39:20;8.73;;;5.25;;
20365;SDS011;10341;49.894;8.822;2023-09-08T04:44:40;8.00;;;5.28;;
20365;SDS011;10341;49.894;8.822;2023-09-08T04:50:00;9.32;;;5.85;;
20365;SDS011;10341;49.894;8.822;2023-09-08T04:55:20;8.30;;;5.63;;
20365;SDS011;10341;49.894;8.822;2023-09-08T05:00:40;9.93;;;5.18;;
20365;SDS011;10341;49.894;8.822;2023-09-08T05:06:01;7.18;;;5.18;;
20365;SDS011;10341;49.894;8.822;2023-09-08T05:11:20;5.80;;;4.45;;
20365;SDS011;10341;49.894;8.822;2023-09-08T05:16:40;7.80;;;5.35;;
20365;SDS011;10341;49.894;8.822;2023-09-08T05:22:08;7.57;;;4.78;;
20365;SDS011;10341;49.894;8.822;2023-09-08T05:27:28;7.10;;;4.78;;
20365;SDS011;10341;49.894;8.822;2023-09-08T05:32:48;5.82;;;4.20;;
20365;SDS011;10341;49.894;8.822;2023-09-08T05:38:08;6.97;;;4.47;;
20365;SDS011;10341;49.894;8.822;2023-09-08T05:48:48;7.57;;;4.60;;
20365;SDS011;10341;49.894;8.822;2023-09-08T05:54:08;6.80;;;4.65;;
20365;SDS011;10341;49.894;8.822;2023-09-08T05:59:28;8.48;;;5.35;;
20365;SDS011;10341;49.894;8.822;2023-09-08T06:04:48;8.95;;;5.88;;
20365;SDS011;10341;49.894;8.822;2023-09-08T06:10:09;9.68;;;5.82;;
20365;SDS011;10341;49.894;8.822;2023-09-08T06:15:29;10.40;;;6.63;;
20365;SDS011;10341;49.894;8.822;2023-09-08T06:20:49;8.77;;;6.10;;
20365;SDS011;10341;49.894;8.822;2023-09-08T06:26:10;7.53;;;5.53;;
20365;SDS011;10341;49.894;8.822;2023-09-08T06:31:31;8.85;;;6.10;;
20365;SDS011;10341;49.894;8.822;2023-09-08T06:36:51;8.98;;;5.93;;
20365;SDS011;10341;49.894;8.822;2023-09-08T06:42:11;10.25;;;5.50;;
20365;SDS011;10341;49.894;8.822;2023-09-08T06:47:39;8.25;;;5.70;;
20365;SDS011;10341;49.894;8.822;2023-09-08T06:52:59;7.30;;;5.68;;
20365;SDS011;10341;49.894;8.822;2023-09-08T06:58:19;8.25;;;6.22;;
20365;SDS011;10341;49.894;8.822;2023-09-08T07:03:40;8.50;;;5.63;;
20365;SDS011;10341;49.894;8.822;2023-09-08T07:09:02;8.73;;;5.70;;
20365;SDS011;10341;49.894;8.822;2023-09-08T07:14:23;11.40;;;6.93;;
20365;SDS011;10341;49.894;8.822;2023-09-08T07:19:43;8.00;;;5.93;;
20365;SDS011;10341;49.894;8.822;2023-09-08T07:25:03;10.50;;;5.82;;
20365;SDS011;10341;49.894;8.822;2023-09-08T07:30:23;6.75;;;5.40;;
20365;SDS011;10341;49.894;8.822;2023-09-08T07:35:43;7.15;;;5.30;;
20365;SDS011;10341;49.894;8.822;2023-09-08T07:41:02;8.70;;;5.20;;
20365;SDS011;10341;49.894;8.822;2023-09-08T07:46:22;5.82;;;4.88;;
20365;SDS011;10341;49.894;8.822;2023-09-08T07:51:42;7.25;;;4.18;;
20365;SDS011;10341;49.894;8.822;2023-09-08T07:57:01;6.43;;;4.45;;
20365;SDS011;10341;49.894;8.822;2023-09-08T08:02:21;5.78;;;4.43;;
20365;SDS011;10341;49.894;8.822;2023-09-08T08:07:41;5.03;;;3.97;;
20365;SDS011;10341;49.894;8.822;2023-09-08T08:13:01;5.15;;;4.28;;
20365;SDS011;10341;49.894;8.822;2023-09-08T08:18:22;5.43;;;4.18;;
20365;SDS011;10341;49.894;8.822;2023-09-08T08:23:41;4.95;;;4.10;;
20365;SDS011;10341;49.894;8.822;2023-09-08T08:29:01;4.60;;;3.58;;
20365;SDS011;10341;49.894;8.822;2023-09-08T08:34:20;4.57;;;3.70;;
20365;SDS011;10341;49.894;8.822;2023-09-08T08:39:40;4.45;;;3.75;;
20365;SDS011;10341;49.894;8.822;2023-09-08T08:45:00;3.60;;;3.30;;
20365;SDS011;10341;49.894;8.822;2023-09-08T08:50:20;3.75;;;3.17;;
20365;SDS011;10341;49.894;8.822;2023-09-08T08:55:39;3.58;;;3.10;;
20365;SDS011;10341;49.894;8.822;2023-09-08T09:00:59;4.00;;;3.17;;
20365;SDS011;10341;49.894;8.822;2023-09-08T09:06:19;4.68;;;3.60;;
20365;SDS011;10341;49.894;8.822;2023-09-08T09:11:39;3.45;;;3.15;;
20365;SDS011;10341;49.894;8.822;2023-09-08T09:16:59;3.65;;;3.15;;
20365;SDS011;10341;49.894;8.822;2023-09-08T09:22:20;3.53;;;3.22;;
20365;SDS011;10341;49.894;8.822;2023-09-08T09:27:43;3.40;;;3.10;;
20365;SDS011;10341;49.894;8.822;2023-09-08T09:33:09;3.17;;;2.88;;
20365;SDS011;10341;49.894;8.822;2023-09-08T09:38:29;4.15;;;3.20;;
20365;SDS011;10341;49.894;8.822;2023-09-08T09:43:49;5.07;;;3.15;;
20365;SDS011;10341;49.894;8.822;2023-09-08T09:49:10;3.10;;;2.80;;
20365;SDS011;10341;49.894;8.822;2023-09-08T09:54:31;5.13;;;3.15;;
20365;SDS011;10341;49.894;8.822;2023-09-08T09:59:51;3.90;;;3.20;;
20365;SDS011;10341;49.894;8.822;2023-09-08T10:05:12;4.50;;;3.30;;
20365;SDS011;10341;49.894;8.822;2023-09-08T10:10:32;3.58;;;3.13;;
20365;SDS011;10341;49.894;8.822;2023-09-08T10:15:56;3.80;;;2.80;;
20365;SDS011;10341;49.894;8.822;2023-09-08T10:21:17;5.00;;;3.00;;
20365;SDS011;10341;49.894;8.822;2023-09-08T10:26:40;3.58;;;2.85;;
20365;SDS011;10341;49.894;8.822;2023-09-08T10:32:04;3.83;;;2.78;;
20365;SDS011;10341;49.894;8.822;2023-09-08T10:37:25;3.10;;;2.80;;
20365;SDS011;10341;49.894;8.822;2023-09-08T10:42:48;3.35;;;2.85;;
20365;SDS011;10341;49.894;8.822;2023-09-08T10:48:08;3.50;;;3.03;;
20365;SDS011;10341;49.894;8.822;2023-09-08T10:53:29;3.33;;;2.90;;
20365;SDS011;10341;49.894;8.822;2023-09-08T10:58:51;3.55;;;2.85;;
20365;SDS011;10341;49.894;8.822;2023-09-08T11:04:11;3.10;;;2.80;;
20365;SDS011;10341;49.894;8.822;2023-09-08T11:09:35;3.15;;;2.70;;
20365;SDS011;10341;49.894;8.822;2023-09-08T11:14:55;3.45;;;2.78;;
20365;SDS011;10341;49.894;8.822;2023-09-08T11:20:15;4.50;;;2.78;;
20365;SDS011;10341;49.894;8.822;2023-09-08T11:25:35;3.30;;;2.60;;
20365;SDS011;10341;49.894;8.822;2023-09-08T11:30:55;3.75;;;2.95;;
20365;SDS011;10341;49.894;8.822;2023-09-08T11:36:15;4.00;;;2.88;;
20365;SDS011;10341;49.894;8.822;2023-09-08T11:41:34;3.40;;;3.10;;
20365;SDS011;10341;49.894;8.822;2023-09-08T11:46:54;3.08;;;2.78;;
20365;SDS011;10341;49.894;8.822;2023-09-08T11:52:14;3.22;;;2.92;;
20365;SDS011;10341;49.894;8.822;2023-09-08T11:57:33;4.65;;;3.10;;
20365;SDS011;10341;49.894;8.822;2023-09-08T12:02:53;3.92;;;2.90;;
20365;SDS011;10341;49.894;8.822;2023-09-08T12:08:13;3.67;;;3.03;;
20365;SDS011;10341;49.894;8.822;2023-09-08T12:13:33;3.20;;;2.90;;
20365;SDS011;10341;49.894;8.822;2023-09-08T12:18:53;3.63;;;3.17;;
20365;SDS011;10341;49.894;8.822;2023-09-08T12:24:14;3.70;;;3.00;;
20365;SDS011;10341;49.894;8.822;2023-09-08T12:29:33;4.07;;;2.85;;
20365;SDS011;10341;49.894;8.822;2023-09-08T12:34:53;5.22;;;3.30;;
20365;SDS011;10341;49.894;8.822;2023-09-08T12:40:12;3.20;;;2.88;;
20365;SDS011;10341;49.894;8.822;2023-09-08T12:45:34;3.55;;;3.05;;
20365;SDS011;10341;49.894;8.822;2023-09-08T12:50:54;3.72;;;3.10;;
20365;SDS011;10341;49.894;8.822;2023-09-08T12:56:14;3.03;;;2.72;;
20365;SDS011;10341;49.894;8.822;2023-09-08T13:01:33;3.05;;;2.75;;
20365;SDS011;10341;49.894;8.822;2023-09-08T13:06:53;3.53;;;3.15;;
20365;SDS011;10341;49.894;8.822;2023-09-08T13:12:12;3.50;;;2.90;;
20365;SDS011;10341;49.894;8.822;2023-09-08T13:17:32;2.90;;;2.70;;
20365;SDS011;10341;49.894;8.822;2023-09-08T13:22:52;3.72;;;3.20;;
20365;SDS011;10341;49.894;8.822;2023-09-08T13:28:12;3.67;;;3.10;;
20365;SDS011;10341;49.894;8.822;2023-09-08T13:33:31;3.97;;;2.78;;
20365;SDS011;10341;49.894;8.822;2023-09-08T13:38:51;4.05;;;3.38;;
20365;SDS011;10341;49.894;8.822;2023-09-08T13:44:11;3.63;;;2.90;;
20365;SDS011;10341;49.894;8.822;2023-09-08T13:49:31;3.63;;;3.13;;
20365;SDS011;10341;49.894;8.822;2023-09-08T13:54:51;4.03;;;2.80;;
20365;SDS011;10341;49.894;8.822;2023-09-08T14:00:10;3.75;;;2.80;;
20365;SDS011;10341;49.894;8.822;2023-09-08T14:05:30;4.22;;;3.10;;
20365;SDS011;10341;49.894;8.822;2023-09-08T14:10:50;4.15;;;3.20;;
20365;SDS011;10341;49.894;8.822;2023-09-08T14:16:13;4.40;;;2.92;;
20365;SDS011;10341;49.894;8.822;2023-09-08T14:21:33;3.70;;;2.90;;
20365;SDS011;10341;49.894;8.822;2023-09-08T14:26:52;4.70;;;3.03;;
20365;SDS011;10341;49.894;8.822;2023-09-08T14:32:12;4.93;;;3.25;;
20365;SDS011;10341;49.894;8.822;2023-09-08T14:37:32;3.97;;;3.42;;
20365;SDS011;10341;49.894;8.822;2023-09-08T14:42:52;3.53;;;3.10;;
20365;SDS011;10341;49.894;8.822;2023-09-08T14:48:11;3.78;;;3.15;;
20365;SDS011;10341;49.894;8.822;2023-09-08T14:53:31;5.13;;;3.33;;
20365;SDS011;10341;49.894;8.822;2023-09-08T14:58:51;4.28;;;3.55;;
20365;SDS011;10341;49.894;8.822;2023-09-08T15:04:11;3.63;;;3.00;;
20365;SDS011;10341;49.894;8.822;2023-09-08T15:09:30;3.83;;;2.92;;
20365;SDS011;10341;49.894;8.822;2023-09-08T15:14:50;4.15;;;3.20;;
20365;SDS011;10341;49.894;8.822;2023-09-08T15:20:09;5.22;;;3.17;;
20365;SDS011;10341;49.894;8.822;2023-09-08T15:25:29;3.42;;;2.83;;
20365;SDS011;10341;49.894;8.822;2023-09-08T15:30:49;3.60;;;3.08;;
20365;SDS011;10341;49.894;8.822;2023-09-08T15:36:10;4.03;;;3.00;;
20365;SDS011;10341;49.894;8.822;2023-09-08T15:41:29;3.65;;;2.92;;
20365;SDS011;10341;49.894;8.822;2023-09-08T15:46:49;3.75;;;3.15;;
20365;SDS011;10341;49.894;8.822;2023-09-08T15:52:08;4.43;;;3.10;;
20365;SDS011;10341;49.894;8.822;2023-09-08T15:57:28;6.10;;;4.97;;
20365;SDS011;10341;49.894;8.822;2023-09-08T16:02:48;3.95;;;3.30;;
20365;SDS011;10341;49.894;8.822;2023-09-08T16:08:07;4.68;;;3.20;;
20365;SDS011;10341;49.894;8.822;2023-09-08T16:13:27;3.63;;;3.00;;
20365;SDS011;10341;49.894;8.822;2023-09-08T16:18:49;3.35;;;3.05;;
20365;SDS011;10341;49.894;8.822;2023-09-08T16:24:09;3.90;;;3.00;;
20365;SDS011;10341;49.894;8.822;2023-09-08T16:29:28;3.88;;;3.42;;
20365;SDS011;10341;49.894;8.822;2023-09-08T16:34:48;3.75;;;3.17;;
20365;SDS011;10341;49.894;8.822;2023-09-08T16:40:09;3.72;;;3.15;;
20365;SDS011;10341;49.894;8.822;2023-09-08T16:45:29;4.65;;;3.38;;
20365;SDS011;10341;49.894;8.822;2023-09-08T16:50:48;3.80;;;3.40;;
20365;SDS011;10341;49.894;8.822;2023-09-08T16:56:08;4.55;;;3.30;;
20365;SDS011;10341;49.894;8.822;2023-09-08T17:01:27;5.20;;;3.20;;
20365;SDS011;10341;49.894;8.822;2023-09-08T17:06:47;4.97;;;3.55;;
20365;SDS011;10341;49.894;8.822;2023-09-08T17:12:06;4.20;;;3.38;;
20365;SDS011;10341;49.894;8.822;2023-09-08T17:17:27;6.45;;;4.38;;
20365;SDS011;10341;49.894;8.822;2023-09-08T17:22:47;7.35;;;4.95;;
20365;SDS011;10341;49.894;8.822;2023-09-08T17:28:06;6.57;;;4.30;;
20365;SDS011;10341;49.894;8.822;2023-09-08T17:33:25;5.38;;;3.97;;
20365;SDS011;10341;49.894;8.822;2023-09-08T17:38:45;6.35;;;4.22;;
20365;SDS011;10341;49.894;8.822;2023-09-08T17:44:04;5.97;;;4.23;;
20365;SDS011;10341;49.894;8.822;2023-09-08T17:49:23;5.82;;;4.40;;
20365;SDS011;10341;49.894;8.822;2023-09-08T17:54:43;6.70;;;4.07;;
20365;SDS011;10341;49.894;8.822;2023-09-08T18:00:03;9.82;;;4.78;;
20365;SDS011;10341;49.894;8.822;2023-09-08T18:05:24;6.32;;;4.97;;
20365;SDS011;10341;49.894;8.822;2023-09-08T18:10:44;9.63;;;5.13;;
20365;SDS011;10341;49.894;8.822;2023-09-08T18:16:05;9.43;;;5.38;;
20365;SDS011;10341;49.894;8.822;2023-09-08T18:21:25;8.10;;;5.03;;
20365;SDS011;10341;49.894;8.822;2023-09-08T18:26:44;7.87;;;5.00;;
20365;SDS011;10341;49.894;8.822;2023-09-08T18:32:03;10.02;;;6.10;;
20365;SDS011;10341;49.894;8.822;2023-09-08T18:37:23;8.55;;;5.15;;
20365;SDS011;10341;49.894;8.822;2023-09-08T18:42:42;9.52;;;6.18;;
20365;SDS011;10341;49.894;8.822;2023-09-08T18:48:02;11.10;;;6.93;;
20365;SDS011;10341;49.894;8.822;2023-09-08T18:53:21;9.82;;;5.50;;
20365;SDS011;10341;49.894;8.822;2023-09-08T18:58:41;6.28;;;5.00;;
20365;SDS011;10341;49.894;8.822;2023-09-08T19:04:01;6.85;;;5.22;;
20365;SDS011;10341;49.894;8.822;2023-09-08T19:09:21;6.28;;;4.70;;
20365;SDS011;10341;49.894;8.822;2023-09-08T19:14:40;6.05;;;4.80;;
20365;SDS011;10341;49.894;8.822;2023-09-08T19:20:00;5.85;;;4.88;;
20365;SDS011;10341;49.894;8.822;2023-09-08T19:25:19;6.97;;;5.70;;
20365;SDS011;10341;49.894;8.822;2023-09-08T19:30:39;11.23;;;5.53;;
20365;SDS011;10341;49.894;8.822;2023-09-08T19:36:05;6.55;;;5.28;;
20365;SDS011;10341;49.894;8.822;2023-09-08T19:41:24;7.28;;;5.40;;
20365;SDS011;10341;49.894;8.822;2023-09-08T19:46:45;7.45;;;5.82;;
20365;SDS011;10341;49.894;8.822;2023-09-08T19:52:05;9.68;;;5.30;;
20365;SDS011;10341;49.894;8.822;2023-09-08T19:57:25;9.70;;;6.38;;
20365;SDS011;10341;49.894;8.822;2023-09-08T20:02:44;6.93;;;4.80;;
20365;SDS011;10341;49.894;8.822;2023-09-08T20:08:04;6.45;;;4.50;;
20365;SDS011;10341;49.894;8.822;2023-09-08T20:13:23;7.60;;;5.00;;
20365;SDS011;10341;49.894;8.822;2023-09-08T20:18:43;7.00;;;4.63;;
20365;SDS011;10341;49.894;8.822;2023-09-08T20:24:03;7.97;;;5.28;;
20365;SDS011;10341;49.894;8.822;2023-09-08T20:29:25;6.55;;;4.90;;
20365;SDS011;10341;49.894;8.822;2023-09-08T20:34:47;6.82;;;5.55;;
20365;SDS011;10341;49.894;8.822;2023-09-08T20:40:07;9.30;;;5.82;;
20365;SDS011;10341;49.894;8.822;2023-09-08T20:50:46;8.02;;;5.25;;
20365;SDS011;10341;49.894;8.822;2023-09-08T20:56:06;6.60;;;4.97;;
20365;SDS011;10341;49.894;8.822;2023-09-08T21:01:28;7.72;;;5.45;;
20365;SDS011;10341;49.894;8.822;2023-09-08T21:06:47;8.77;;;5.68;;
20365;SDS011;10341;49.894;8.822;2023-09-08T21:12:07;7.80;;;5.15;;
20365;SDS011;10341;49.894;8.822;2023-09-08T21:17:26;9.88;;;6.60;;
20365;SDS011;10341;49.894;8.822;2023-09-08T21:22:49;6.85;;;5.55;;
20365;SDS011;10341;49.894;8.822;2023-09-08T21:28:08;6.73;;;5.63;;
20365;SDS011;10341;49.894;8.822;2023-09-08T21:33:28;8.90;;;5.63;;
20365;SDS011;10341;49.894;8.822;2023-09-08T21:38:47;6.40;;;5.20;;
20365;SDS011;10341;49.894;8.822;2023-09-08T21:44:07;8.45;;;5.68;;
20365;SDS011;10341;49.894;8.822;2023-09-08T21:49:29;9.32;;;5.53;;
20365;SDS011;10341;49.894;8.822;2023-09-08T21:54:49;7.32;;;5.07;;
20365;SDS011;10341;49.894;8.822;2023-09-08T22:00:09;7.43;;;5.65;;
20365;SDS011;10341;49.894;8.822;2023-09-08T22:05:33;7.70;;;6.07;;
20365;SDS011;10341;49.894;8.822;2023-09-08T22:10:52;7.00;;;5.50;;
20365;SDS011;10341;49.894;8.822;2023-09-08T22:16:12;7.38;;;5.75;;
20365;SDS011;10341;49.894;8.822;2023-09-08T22:21:32;6.95;;;5.18;;
20365;SDS011;10341;49.894;8.822;2023-09-08T22:26:51;8.15;;;5.55;;
20365;SDS011;10341;49.894;8.822;2023-09-08T22:32:11;8.32;;;5.82;;
20365;SDS011;10341;49.894;8.822;2023-09-08T22:37:31;7.00;;;4.88;;
20365;SDS011;10341;49.894;8.822;2023-09-08T22:42:52;6.10;;;5.18;;
20365;SDS011;10341;49.894;8.822;2023-09-08T22:48:13;7.03;;;5.25;;
20365;SDS011;10341;49.894;8.822;2023-09-08T22:53:32;6.53;;;5.05;;
20365;SDS011;10341;49.894;8.822;2023-09-08T22:58:52;7.20;;;5.18;;
20365;SDS011;10341;49.894;8.822;2023-09-08T23:04:11;7.17;;;5.53;;
20365;SDS011;10341;49.894;8.822;2023-09-08T23:09:31;7.15;;;5.53;;
20365;SDS011;10341;49.894;8.822;2023-09-08T23:14:51;6.25;;;5.03;;
20365;SDS011;10341;49.894;8.822;2023-09-08T23:20:10;6.10;;;5.07;;
20365;SDS011;10341;49.894;8.822;2023-09-08T23:25:36;8.88;;;5.75;;
20365;SDS011;10341;49.894;8.822;2023-09-08T23:30:55;6.43;;;4.88;;
20365;SDS011;10341;49.894;8.822;2023-09-08T23:36:15;5.90;;;4.53;;
20365;SDS011;10341;49.894;8.822;2023-09-08T23:41:34;6.93;;;4.95;;
20365;SDS011;10341;49.894;8.822;2023-09-08T23:52:14;6.97;;;4.97;;
20365;SDS011;10341;49.894;8.822;2023-09-08T23:57:34;8.77;;;5.80;;
